Forside
METAR-TAF:

METAR-TAF

Lufthavne :

Yeovilton, England

Breddekreds: 51-00N, længdekreds: 002-38W, højde: 23 m

Aktuelle vejr

Denne rapport blev lavet for 38 minutter siden, kl. 01:50 UTC
Vind 2 kt fra sydsydøst
Temperatur 6°C
Fugtighed 93%
Tryk 1034 hPa
Sigt 10 km eller mere

METAR: EGDY 250150Z AUTO 15002KT 9999 NCD 06/05 Q1034

Tid: 03:28 (02:28 UTC)


TAF: fraværende

Vejrobservationer og prognoser fra mere end 4000 lufthavne (METAR og TAF).

De gule og røde prikker repræsenterer de meteorologiske stationer.

Flyt musen over at se navnet på stationen.

Så klik over at se vejr observationer og prognoser.

At skifte det kort: Klik på de grønne knapper med et sort kors for at zoome ind; på den grønne knap med en bindestreg for at zoome ud; eller på de grønne pile for tilstødende kort.


METAR-TAF: